createdAt,value
2023-01-05T00:01:25.159Z,100309.81
2023-01-05T00:09:00.105Z,100317.78
2023-01-05T00:16:52.717Z,100327.59
2023-01-05T00:24:26.624Z,100322.22
2023-01-05T00:32:01.957Z,100336.47
2023-01-05T00:39:35.895Z,100323.13
2023-01-05T00:47:11.300Z,100331.19
2023-01-05T00:54:45.199Z,100320.56
2023-01-05T01:02:20.530Z,100314.41
2023-01-05T01:09:54.276Z,100315.25
2023-01-05T01:17:29.531Z,100325.09
2023-01-05T01:25:03.396Z,100331.31
2023-01-05T01:32:38.807Z,100318.88
2023-01-05T01:40:13.886Z,100317.97
2023-01-05T01:47:54.699Z,100331.38
2023-01-05T01:55:29.643Z,100325.19
2023-01-05T02:03:05.491Z,100317.16
2023-01-05T02:10:58.839Z,100315.44
2023-01-05T02:18:53.157Z,100316.28
2023-01-05T02:27:21.038Z,100313.63
2023-01-05T02:35:08.142Z,100303.81
2023-01-05T02:42:45.685Z,100300.31
2023-01-05T02:50:25.343Z,100307.50
2023-01-05T02:58:05.330Z,100293.19
2023-01-05T03:05:47.059Z,100298.50
2023-01-05T03:13:38.889Z,100309.16
2023-01-05T03:21:14.206Z,100318.03
2023-01-05T03:29:10.486Z,100299.41
2023-01-05T03:36:50.845Z,100311.09
2023-01-05T03:44:24.940Z,100306.75
2023-01-05T03:52:00.128Z,100310.41
2023-01-05T03:59:33.947Z,100308.56
2023-01-05T04:07:09.275Z,100325.50
2023-01-05T04:14:43.164Z,100343.28
2023-01-05T04:22:23.629Z,100334.34
2023-01-05T04:30:00.806Z,100344.09
2023-01-05T04:37:36.143Z,100362.69
2023-01-05T04:45:11.321Z,100353.47
2023-01-05T04:52:46.998Z,100367.47
2023-01-05T05:00:21.076Z,100366.47
2023-01-05T05:07:56.296Z,100388.56
2023-01-05T05:15:30.238Z,100388.50
2023-01-05T05:23:05.450Z,100384.88
2023-01-05T05:30:39.452Z,100383.19
2023-01-05T05:38:15.812Z,100388.59
2023-01-05T05:45:50.899Z,100378.94
2023-01-05T05:53:26.297Z,100379.75
2023-01-05T06:01:00.398Z,100409.97
2023-01-05T06:08:35.765Z,100402.00
2023-01-05T06:16:09.619Z,100432.25
2023-01-05T06:23:44.780Z,100449.88
2023-01-05T06:31:18.731Z,100440.81
2023-01-05T06:38:54.138Z,100456.72
2023-01-05T06:46:28.399Z,100465.38
2023-01-05T06:54:03.609Z,100464.47
2023-01-05T07:01:37.657Z,100480.47
2023-01-05T07:09:13.092Z,100492.84
2023-01-05T07:16:46.942Z,100491.88
2023-01-05T07:24:22.186Z,100499.94
2023-01-05T07:31:55.977Z,100513.19
2023-01-05T07:39:31.198Z,100519.34
2023-01-05T07:47:05.224Z,100533.44
2023-01-05T07:54:40.668Z,100540.41
2023-01-05T08:02:14.647Z,100552.78
2023-01-05T08:10:07.314Z,100564.31
2023-01-05T08:17:41.273Z,100591.09
2023-01-05T08:25:16.924Z,100586.84
2023-01-05T08:32:50.941Z,100609.00
2023-01-05T08:40:26.401Z,100620.53
2023-01-05T08:48:00.915Z,100618.81
2023-01-05T08:55:36.198Z,100627.75
2023-01-05T09:03:10.900Z,100639.41
2023-01-05T09:10:46.122Z,100650.31
2023-01-05T09:18:19.949Z,100664.50
2023-01-05T09:25:55.408Z,100679.50
2023-01-05T09:33:29.240Z,100692.63
2023-01-05T09:41:09.440Z,100697.78
2023-01-05T09:48:47.347Z,100715.34
2023-01-05T09:57:07.425Z,100721.53
2023-01-05T10:04:30.514Z,100734.69
2023-01-05T10:12:38.039Z,100733.78
2023-01-05T10:20:17.073Z,100746.34
2023-01-05T10:27:58.240Z,100767.72
2023-01-05T10:36:04.312Z,100796.06
2023-01-05T10:44:11.477Z,100787.16
2023-01-05T10:51:50.022Z,100791.56
2023-01-05T10:59:28.162Z,100787.13
2023-01-05T11:07:05.195Z,100794.31
2023-01-05T11:14:44.533Z,100812.09
2023-01-05T11:22:30.858Z,100806.88
2023-01-05T11:30:24.688Z,100803.22
2023-01-05T11:38:00.331Z,100812.09
2023-01-05T11:45:41.144Z,100846.88
2023-01-05T11:53:26.104Z,100857.63
2023-01-05T12:01:33.615Z,100863.97
2023-01-05T12:09:21.046Z,100879.25
2023-01-05T12:16:56.508Z,100881.94
2023-01-05T12:24:43.406Z,100890.75
2023-01-05T12:40:53.084Z,100920.94
2023-01-05T12:48:32.126Z,100944.06
2023-01-05T12:56:18.377Z,100952.75
2023-01-05T13:03:58.036Z,100965.16
2023-01-05T13:11:39.491Z,100978.47
2023-01-05T13:19:19.651Z,100972.94
2023-01-05T13:26:55.191Z,101001.38
2023-01-05T13:34:49.663Z,101013.75
2023-01-05T13:42:38.760Z,101034.16
2023-01-05T13:50:42.322Z,101045.66
2023-01-05T13:58:43.883Z,101050.94
2023-01-05T14:06:23.112Z,101066.81
2023-01-05T14:14:08.608Z,101078.22
2023-01-05T14:22:01.153Z,101085.22
2023-01-05T14:30:11.397Z,101122.44
2023-01-05T14:37:56.576Z,101134.72
2023-01-05T14:45:31.573Z,101155.03
2023-01-05T14:53:13.913Z,101167.34
2023-01-05T15:00:57.904Z,101190.25
2023-01-05T15:08:56.164Z,101208.75
2023-01-05T15:16:42.095Z,101231.44
2023-01-05T15:24:50.893Z,101257.53
2023-01-05T15:32:28.795Z,101266.09
2023-01-05T15:40:07.683Z,101296.78
2023-01-05T15:47:41.508Z,101303.44
2023-01-05T15:55:19.202Z,101313.94
2023-01-05T16:02:53.313Z,101327.09
2023-01-05T16:10:37.283Z,101346.47
2023-01-05T16:18:17.172Z,101340.94
2023-01-05T16:25:55.544Z,101366.59
2023-01-05T16:33:35.114Z,101375.25
2023-01-05T16:41:16.338Z,101384.88
2023-01-05T16:48:52.832Z,101381.19
2023-01-05T16:56:53.438Z,101396.13
2023-01-05T17:04:27.596Z,101391.56
2023-01-05T17:12:03.214Z,101398.56
2023-01-05T17:19:37.503Z,101408.91
2023-01-05T17:34:46.951Z,101430.75
2023-01-05T17:42:39.360Z,101445.66
2023-01-05T17:50:16.410Z,101445.53
2023-01-05T17:57:52.228Z,101454.22
2023-01-05T18:05:26.372Z,101473.78
2023-01-05T18:13:01.689Z,101494.03
2023-01-05T18:28:11.516Z,101508.16
2023-01-05T18:35:45.790Z,101507.19
2023-01-05T18:43:21.453Z,101509.72
2023-01-05T18:50:55.511Z,101517.56
2023-01-05T18:58:30.921Z,101527.13
2023-01-05T19:06:10.522Z,101528.63
2023-01-05T19:13:50.419Z,101552.47
2023-01-05T19:21:33.170Z,101548.03
2023-01-05T19:29:09.418Z,101555.94
2023-01-05T19:36:43.467Z,101561.19
2023-01-05T19:44:21.727Z,101564.44
2023-01-05T19:51:56.408Z,101573.88
2023-01-05T19:59:34.201Z,101583.31
2023-01-05T20:07:10.912Z,101607.22
2023-01-05T20:14:46.558Z,101614.78
2023-01-05T20:22:20.947Z,101617.84
2023-01-05T20:29:57.108Z,101633.50
2023-01-05T20:37:33.034Z,101644.03
2023-01-05T20:45:09.788Z,101656.22
2023-01-05T20:52:44.234Z,101662.22
2023-01-05T21:00:28.061Z,101666.78
2023-01-05T21:08:02.462Z,101672.66
2023-01-05T21:15:38.098Z,101684.88
2023-01-05T21:23:18.378Z,101688.97
2023-01-05T21:30:53.999Z,101698.28
2023-01-05T21:39:02.156Z,101703.84
2023-01-05T21:46:38.185Z,101705.91
2023-01-05T21:54:30.251Z,101702.13
2023-01-05T22:02:18.621Z,101700.91
2023-01-05T22:09:52.594Z,101700.53
2023-01-05T22:17:28.018Z,101701.00
2023-01-05T22:25:02.017Z,101704.78
2023-01-05T22:32:37.973Z,101724.47
2023-01-05T22:40:12.882Z,101723.16
2023-01-05T22:47:48.577Z,101735.03
2023-01-05T22:55:22.668Z,101726.16
2023-01-05T23:03:00.197Z,101729.84
2023-01-05T23:10:34.873Z,101737.06
2023-01-05T23:18:10.110Z,101741.03
2023-01-05T23:25:46.722Z,101753.84
2023-01-05T23:33:24.278Z,101739.16
2023-01-05T23:41:00.349Z,101732.69
2023-01-05T23:48:37.125Z,101721.44
2023-01-05T23:56:12.792Z,101713.50
